Time;durP1;ratioP1;P1;durP2;ratioP2;P2;SDS_P1;SDS_P2;PMS_P1;PMS_P2;Temp;Humidity;BMP_temperature;BMP_pressure;BME280_temperature;BME280_humidity;BME280_pressure;Samples;Min_cycle;Max_cycle;Signal;HPM_P1;HPM_P2
2021/03/22 00:01:17;;;;;;;16.00;9.68;;;;;;;23.75;26.40;157385.14;1744734;80;21217;-78
2021/03/22 00:03:51;;;;;;;15.10;7.70;;;;;;;23.75;26.41;157385.14;1740511;82;21240;-78
2021/03/22 00:06:24;;;;;;;17.80;9.30;;;;;;;23.69;26.45;157369.25;1734397;82;21156;-78
2021/03/22 00:08:57;;;;;;;17.32;8.95;;;;;;;23.57;26.56;157336.08;1725811;82;21831;-77
2021/03/22 00:11:31;;;;;;;16.60;8.80;;;;;;;23.66;26.49;157361.30;1721918;82;21881;-79
2021/03/22 00:14:05;;;;;;;15.13;8.18;;;;;;;23.66;26.44;157361.30;1734410;82;21173;-78
2021/03/22 00:16:38;;;;;;;18.48;9.18;;;;;;;23.73;26.45;157381.19;1742805;82;21874;-77
2021/03/22 00:19:12;;;;;;;17.62;9.63;;;;;;;23.80;26.43;157398.47;1742218;81;21318;-77
2021/03/22 00:21:45;;;;;;;16.37;7.95;;;;;;;23.72;26.41;157378.53;1739099;81;21295;-78
2021/03/22 00:24:19;;;;;;;15.65;8.70;;;;;;;23.82;26.45;157403.78;1742442;82;21840;-77
2021/03/22 00:26:51;;;;;;;18.48;9.63;;;;;;;23.88;26.44;157421.03;1736195;82;21844;-77
2021/03/22 00:29:24;;;;;;;16.12;8.00;;;;;;;24.00;26.34;157452.84;1748031;80;21230;-77
2021/03/22 00:31:57;;;;;;;15.28;8.33;;;;;;;24.10;26.39;157478.02;1743631;81;21346;-77
2021/03/22 00:34:31;;;;;;;15.08;8.05;;;;;;;24.22;26.21;157511.19;1730178;82;21363;-77
2021/03/22 00:37:04;;;;;;;14.55;8.40;;;;;;;24.14;26.33;157488.64;1733186;80;21368;-77
2021/03/22 00:39:37;;;;;;;17.05;8.38;;;;;;;24.29;26.37;157529.75;1743095;82;21334;-77
2021/03/22 00:42:10;;;;;;;18.40;9.25;;;;;;;24.39;26.10;157554.97;1750955;80;21340;-77
2021/03/22 00:44:43;;;;;;;14.63;7.95;;;;;;;24.36;26.17;157546.98;1787521;80;21316;-77
2021/03/22 00:47:15;;;;;;;17.15;8.63;;;;;;;24.32;26.22;157536.36;1776402;79;21194;-77
2021/03/22 00:49:49;;;;;;;14.85;8.20;;;;;;;24.28;26.25;157525.78;1773928;81;21162;-77
2021/03/22 00:52:21;;;;;;;15.10;8.30;;;;;;;24.24;26.29;157516.52;1755243;81;21157;-77
2021/03/22 00:54:54;;;;;;;15.78;8.43;;;;;;;24.22;26.32;157511.19;1746544;82;21216;-77
2021/03/22 00:57:27;;;;;;;16.60;8.58;;;;;;;24.21;26.30;157507.19;1743996;82;21681;-77
2021/03/22 01:00:00;;;;;;;16.23;9.20;;;;;;;24.28;26.37;157525.78;1746490;82;21165;-76
2021/03/22 01:02:33;;;;;;;15.55;8.55;;;;;;;24.34;26.24;157541.69;1745159;81;21187;-77
2021/03/22 01:05:07;;;;;;;18.98;9.45;;;;;;;24.30;26.26;157531.09;1762292;81;21178;-77
2021/03/22 01:07:40;;;;;;;19.82;10.23;;;;;;;24.30;26.36;157531.09;1762602;81;21231;-76
2021/03/22 01:10:29;;;;;;;17.65;9.28;;;;;;;24.26;26.33;157521.78;1743098;81;21146;-77
2021/03/22 01:13:03;;;;;;;18.20;9.35;;;;;;;24.28;26.30;157525.78;1736744;82;21289;-76
2021/03/22 01:15:36;;;;;;;18.25;9.53;;;;;;;24.24;26.32;157516.52;1741603;82;21199;-77
2021/03/22 01:18:09;;;;;;;20.52;10.40;;;;;;;24.20;26.32;157504.53;1741592;82;21171;-77
2021/03/22 01:20:52;;;;;;;20.05;9.95;;;;;;;24.28;26.32;157525.78;1744484;81;21159;-76
2021/03/22 01:23:25;;;;;;;22.52;10.38;;;;;;;24.25;26.29;157519.13;1744856;82;21190;-77
2021/03/22 01:25:58;;;;;;;20.62;12.00;;;;;;;24.24;26.25;157516.52;1745471;82;21329;-77
2021/03/22 01:28:31;;;;;;;20.25;10.63;;;;;;;24.15;26.42;157492.59;1745324;82;21195;-77
2021/03/22 01:31:04;;;;;;;26.50;11.85;;;;;;;24.26;26.40;157521.78;1744480;80;21134;-77
2021/03/22 01:33:41;;;;;;;28.67;11.60;;;;;;;24.20;26.63;157504.53;1749809;81;21196;-77
2021/03/22 01:36:19;;;;;;;19.20;10.68;;;;;;;24.21;26.49;157507.19;1750604;82;21379;-77
2021/03/22 01:38:52;;;;;;;28.73;12.33;;;;;;;24.25;26.44;157517.81;1750666;81;21173;-77
2021/03/22 01:41:41;;;;;;;33.18;13.45;;;;;;;24.42;26.37;157564.23;1777785;80;21321;-77
2021/03/22 01:44:24;;;;;;;31.75;12.53;;;;;;;24.32;26.43;157536.36;1713568;82;21214;-77
2021/03/22 01:47:03;;;;;;;27.13;11.90;;;;;;;24.39;26.47;157556.27;1726236;82;21737;-76
2021/03/22 01:50:08;;;;;;;20.10;9.68;;;;;;;24.19;26.71;157501.92;1726323;81;21186;-77
2021/03/22 01:52:43;;;;;;;22.90;10.38;;;;;;;24.33;26.79;157540.38;1732488;81;21353;-76
2021/03/22 01:55:17;;;;;;;22.05;10.60;;;;;;;24.90;26.16;157692.97;1722624;83;21848;-76
2021/03/22 01:57:49;;;;;;;22.65;11.15;;;;;;;24.84;26.17;157677.08;1722600;83;21190;-77
2021/03/22 02:00:28;;;;;;;17.27;10.23;;;;;;;24.73;26.22;157647.88;1732805;81;21194;-77
2021/03/22 02:03:11;;;;;;;22.20;11.80;;;;;;;24.65;26.39;157625.31;1750169;81;21293;-77
2021/03/22 02:05:49;;;;;;;20.97;10.98;;;;;;;24.64;26.23;157621.36;1747881;81;21183;-77
2021/03/22 02:08:31;;;;;;;24.98;10.90;;;;;;;24.68;26.36;157634.59;1746413;82;21227;-77
2021/03/22 02:11:04;;;;;;;21.85;10.50;;;;;;;24.78;26.34;157659.81;1745831;80;21164;-77
2021/03/22 02:13:37;;;;;;;20.60;10.50;;;;;;;24.54;26.40;157594.78;1731538;81;21142;-77
2021/03/22 02:16:19;;;;;;;22.05;11.22;;;;;;;24.71;26.30;157642.56;1737043;82;21337;-77
2021/03/22 02:19:25;;;;;;;26.62;12.20;;;;;;;24.68;26.34;157634.59;1737067;82;21873;-77
2021/03/22 02:22:27;;;;;;;24.75;11.53;;;;;;;24.72;26.41;157643.88;1691263;83;21194;-77
2021/03/22 02:25:26;;;;;;;26.52;11.93;;;;;;;24.75;26.46;157653.20;1678853;84;21913;-78
2021/03/22 02:28:49;;;;;;;23.25;10.82;;;;;;;24.76;26.42;157654.50;1674843;85;21763;-77
2021/03/22 02:31:38;;;;;;;21.00;10.68;;;;;;;24.77;26.35;157657.16;1712135;83;21238;-76
2021/03/22 02:34:35;;;;;;;20.23;9.53;;;;;;;24.70;26.41;157638.61;1642249;86;21207;-77
2021/03/22 02:37:18;;;;;;;16.42;9.65;;;;;;;24.78;26.32;157659.81;1654557;86;21357;-77
2021/03/22 02:40:28;;;;;;;17.48;9.68;;;;;;;24.88;26.22;157687.66;1725488;80;21141;-77
2021/03/22 02:43:02;;;;;;;15.63;8.67;;;;;;;24.88;26.26;157687.66;1706341;83;21194;-77
2021/03/22 02:45:41;;;;;;;17.65;9.78;;;;;;;24.88;26.19;157686.34;1649336;86;21763;-77
2021/03/22 02:48:26;;;;;;;21.52;10.38;;;;;;;24.91;26.29;157695.62;1698733;83;21774;-77
2021/03/22 02:51:27;;;;;;;22.17;11.33;;;;;;;24.98;26.28;157712.88;1675200;84;21212;-77
2021/03/22 02:54:17;;;;;;;;;;;;;;;24.96;26.28;157708.92;1663768;85;21359;-77
2021/03/22 02:57:04;;;;;;;18.17;8.90;;;;;;;25.12;26.13;157751.41;1672305;86;20843;-77
2021/03/22 02:59:47;;;;;;;17.15;8.88;;;;;;;25.03;26.26;157727.48;1691141;83;22021;-76
2021/03/22 03:02:20;;;;;;;20.72;9.45;;;;;;;25.05;26.22;157732.80;1733829;80;21647;-76
2021/03/22 03:04:53;;;;;;;22.52;10.25;;;;;;;25.13;26.36;157754.06;1731901;83;21206;-77
2021/03/22 03:07:27;;;;;;;17.52;8.55;;;;;;;25.00;26.39;157719.50;1739768;82;21312;-77
2021/03/22 03:10:00;;;;;;;17.73;9.10;;;;;;;25.08;26.27;157740.78;1772334;80;21328;-76
2021/03/22 03:12:32;;;;;;;18.00;9.58;;;;;;;25.00;26.26;157719.50;1779159;80;21175;-76
2021/03/22 03:15:07;;;;;;;17.85;9.40;;;;;;;25.03;26.32;157726.17;1779039;80;21669;-76
2021/03/22 03:17:42;;;;;;;18.12;9.78;;;;;;;24.94;26.57;157702.30;1758601;80;21303;-76
2021/03/22 03:20:18;;;;;;;19.23;9.93;;;;;;;24.99;26.47;157716.89;1741529;80;21804;-77
2021/03/22 03:22:51;;;;;;;19.20;10.15;;;;;;;25.07;26.44;157738.11;1738468;82;21300;-77
2021/03/22 03:25:25;;;;;;;19.30;10.63;;;;;;;25.18;26.25;157766.00;1738311;82;21325;-77
2021/03/22 03:27:58;;;;;;;22.25;11.28;;;;;;;25.23;26.13;157780.61;1734587;82;21305;-76
2021/03/22 03:30:35;;;;;;;20.43;10.60;;;;;;;25.18;26.08;157767.36;1732442;80;21218;-76
2021/03/22 03:33:12;;;;;;;19.85;10.13;;;;;;;25.18;26.13;157766.00;1737900;82;21173;-77
2021/03/22 03:35:45;;;;;;;22.75;10.32;;;;;;;25.16;26.11;157760.75;1739219;82;21195;-78
2021/03/22 03:38:17;;;;;;;17.48;8.80;;;;;;;25.11;26.10;157747.39;1746749;80;21200;-77
2021/03/22 03:40:50;;;;;;;18.77;10.43;;;;;;;25.00;26.13;157719.50;1742585;80;21201;-77
2021/03/22 03:43:23;;;;;;;14.70;9.08;;;;;;;24.78;26.29;157661.12;1740166;82;21309;-77
2021/03/22 03:45:56;;;;;;;15.20;8.78;;;;;;;24.81;26.25;157667.80;1709797;83;21201;-77
2021/03/22 03:48:29;;;;;;;18.40;10.00;;;;;;;24.77;26.30;157657.16;1690459;83;21363;-77
2021/03/22 03:51:03;;;;;;;21.45;9.30;;;;;;;24.92;26.21;157698.28;1727091;83;21907;-77
2021/03/22 03:53:35;;;;;;;19.92;10.68;;;;;;;24.98;26.32;157714.23;1719598;83;21183;-77
2021/03/22 03:56:08;;;;;;;21.02;10.53;;;;;;;25.19;26.08;157768.67;1700423;83;21320;-77
2021/03/22 03:58:41;;;;;;;19.62;10.25;;;;;;;25.21;26.02;157773.98;1717245;82;21391;-77
2021/03/22 04:01:14;;;;;;;23.98;12.43;;;;;;;25.21;26.06;157775.34;1704475;84;21173;-77
2021/03/22 04:03:48;;;;;;;18.37;10.03;;;;;;;25.16;26.02;157762.05;1721791;83;21180;-77
2021/03/22 04:06:26;;;;;;;22.65;11.38;;;;;;;25.15;26.06;157759.38;1689264;84;21158;-77
2021/03/22 04:09:09;;;;;;;21.45;10.98;;;;;;;24.98;26.08;157712.88;1688844;83;21895;-77
2021/03/22 04:11:46;;;;;;;23.15;11.25;;;;;;;24.96;26.15;157708.92;1678144;85;21340;-77
2021/03/22 04:14:27;;;;;;;19.87;10.65;;;;;;;25.07;26.06;157738.11;1681823;85;21324;-77
2021/03/22 04:17:00;;;;;;;22.82;10.93;;;;;;;24.93;26.18;157700.94;1670502;85;21309;-77
2021/03/22 04:19:33;;;;;;;20.75;10.20;;;;;;;25.08;26.08;157739.42;1678998;83;21329;-77
2021/03/22 04:22:06;;;;;;;28.05;10.53;;;;;;;25.10;26.03;157744.73;1686607;83;21711;-78
2021/03/22 04:24:39;;;;;;;22.75;11.22;;;;;;;25.05;26.09;157731.50;1685390;83;21384;-82
2021/03/22 04:27:12;;;;;;;24.25;10.90;;;;;;;24.99;26.15;157716.89;1636643;85;21222;-81
2021/03/22 04:29:45;;;;;;;26.42;13.53;;;;;;;24.95;26.22;157706.27;1626174;85;22147;-78
2021/03/22 04:32:18;;;;;;;27.70;12.70;;;;;;;24.99;26.22;157716.89;1659971;83;21274;-77
2021/03/22 04:34:51;;;;;;;27.67;12.60;;;;;;;24.95;26.25;157706.27;1635428;84;21678;-76
2021/03/22 04:37:25;;;;;;;22.87;11.83;;;;;;;24.96;26.24;157708.92;1660409;84;21492;-77
2021/03/22 04:39:58;;;;;;;21.82;11.48;;;;;;;24.79;26.36;157663.78;1638554;85;21340;-77
2021/03/22 04:42:31;;;;;;;23.05;11.95;;;;;;;24.78;26.41;157661.12;1669016;83;21336;-77
2021/03/22 04:45:05;;;;;;;27.55;13.10;;;;;;;24.94;26.35;157703.59;1686404;83;21827;-77
2021/03/22 04:47:38;;;;;;;21.48;11.40;;;;;;;25.01;26.31;157720.86;1680482;83;21227;-81
2021/03/22 04:50:12;;;;;;;23.95;11.97;;;;;;;25.02;26.29;157724.81;1688154;82;21322;-77
2021/03/22 04:52:45;;;;;;;28.67;13.00;;;;;;;25.05;26.26;157732.80;1663002;84;22099;-81
2021/03/22 04:55:20;;;;;;;25.17;12.93;;;;;;;25.04;26.31;157728.84;1695458;82;21389;-80
2021/03/22 04:57:53;;;;;;;23.42;12.73;;;;;;;25.11;26.32;157748.81;1678713;83;21343;-80
2021/03/22 05:00:34;;;;;;;24.30;12.65;;;;;;;25.18;26.37;157766.00;1693032;82;21179;-82
2021/03/22 05:03:12;;;;;;;26.37;11.25;;;;;;;25.29;26.33;157795.25;1683321;83;21180;-80
2021/03/22 05:05:45;;;;;;;19.40;9.88;;;;;;;25.34;26.30;157808.50;1658277;83;21356;-82
2021/03/22 05:08:20;;;;;;;19.95;10.72;;;;;;;25.48;26.24;157847.00;1657812;83;21396;-81
2021/03/22 05:10:56;;;;;;;21.55;10.50;;;;;;;25.60;26.18;157878.86;1659853;83;21348;-78
2021/03/22 05:13:30;;;;;;;20.80;11.63;;;;;;;25.65;26.18;157893.45;1661720;83;21334;-76
2021/03/22 05:16:04;;;;;;;20.32;10.72;;;;;;;25.75;26.06;157920.02;1632809;85;22098;-75
2021/03/22 05:18:37;;;;;;;25.50;11.57;;;;;;;25.78;26.03;157928.05;1663813;85;21833;-76
2021/03/22 05:21:10;;;;;;;20.05;9.98;;;;;;;25.89;26.01;157955.95;1658198;84;21360;-74
2021/03/22 05:23:43;;;;;;;19.17;9.80;;;;;;;25.93;25.94;157966.55;1670294;83;21891;-78
2021/03/22 05:26:16;;;;;;;19.15;10.03;;;;;;;25.89;25.93;157955.95;1660533;83;21923;-76
2021/03/22 05:28:50;;;;;;;17.92;10.20;;;;;;;25.91;26.06;157962.58;1662102;83;21376;-77
2021/03/22 05:31:23;;;;;;;19.50;10.63;;;;;;;26.04;26.06;157997.11;1658378;83;21339;-77
2021/03/22 05:33:56;;;;;;;17.87;9.60;;;;;;;26.28;25.87;158060.88;1640073;84;21198;-79
2021/03/22 05:36:31;;;;;;;17.07;9.30;;;;;;;26.40;25.86;158091.41;1639299;85;21194;-78
2021/03/22 05:39:07;;;;;;;14.70;8.85;;;;;;;26.55;25.64;158132.69;1637309;86;21322;-74
2021/03/22 05:42:03;;;;;;;16.50;9.00;;;;;;;26.54;25.46;158130.03;1640601;86;21358;-76
2021/03/22 05:45:26;;;;;;;18.25;10.23;;;;;;;26.45;25.43;158104.77;1657850;84;21173;-77
2021/03/22 05:48:43;;;;;;;16.87;8.75;;;;;;;26.27;25.54;158058.22;1718290;81;21203;-77
2021/03/22 05:51:42;;;;;;;16.00;10.05;;;;;;;26.14;25.61;158023.67;1713845;82;21183;-77
2021/03/22 05:54:46;;;;;;;21.00;9.18;;;;;;;26.02;25.72;157990.48;1664017;83;21381;-75
2021/03/22 05:57:47;;;;;;;15.78;8.45;;;;;;;25.91;25.86;157961.28;1666201;83;21934;-78
2021/03/22 06:00:54;;;;;;;17.12;9.65;;;;;;;26.05;25.76;157999.78;1728960;83;21394;-79
2021/03/22 06:03:48;;;;;;;16.57;9.23;;;;;;;26.00;25.72;157986.47;1728924;83;21310;-77
2021/03/22 06:06:25;;;;;;;16.48;9.28;;;;;;;25.92;25.64;157965.23;1728368;83;21813;-79
2021/03/22 06:09:08;;;;;;;16.45;9.40;;;;;;;26.02;25.68;157991.78;1729671;83;21880;-76
2021/03/22 06:12:19;;;;;;;19.85;10.93;;;;;;;26.07;25.46;158003.75;1729901;83;21176;-76
2021/03/22 06:15:11;;;;;;;18.57;9.95;;;;;;;26.06;25.64;158001.08;1685576;85;21688;-77
2021/03/22 06:17:58;;;;;;;18.25;9.55;;;;;;;26.22;25.55;158044.91;1729988;82;21252;-79
2021/03/22 06:20:35;;;;;;;19.35;9.23;;;;;;;26.32;25.52;158070.16;1730087;83;21713;-77
2021/03/22 06:23:21;;;;;;;19.37;10.65;;;;;;;26.41;25.22;158094.13;1728747;83;21313;-78
2021/03/22 06:25:54;;;;;;;19.10;9.95;;;;;;;26.30;25.40;158064.84;1730164;83;21181;-79
2021/03/22 06:28:30;;;;;;;17.98;9.85;;;;;;;26.19;25.28;158035.63;1685287;85;21315;-78
2021/03/22 06:31:14;;;;;;;18.15;10.18;;;;;;;26.28;25.46;158060.88;1685261;85;21181;-78
2021/03/22 06:33:57;;;;;;;19.98;9.93;;;;;;;26.37;25.05;158083.47;1685260;85;21374;-78
2021/03/22 06:36:29;;;;;;;17.98;9.53;;;;;;;26.30;25.13;158064.84;1729996;83;21328;-78
2021/03/22 06:39:05;;;;;;;19.73;10.38;;;;;;;26.42;25.24;158096.78;1730021;82;21168;-79
2021/03/22 06:41:44;;;;;;;17.07;9.73;;;;;;;26.62;25.00;158151.27;1730057;82;21301;-78
2021/03/22 06:44:39;;;;;;;19.52;10.05;;;;;;;26.62;24.96;158152.58;1729881;83;21303;-78
2021/03/22 06:47:18;;;;;;;23.12;11.30;;;;;;;26.72;25.07;158179.20;1729237;81;21157;-78
2021/03/22 06:49:56;;;;;;;17.80;9.85;;;;;;;26.72;24.99;158177.84;1748840;82;21178;-79
2021/03/22 06:52:38;;;;;;;18.67;10.58;;;;;;;26.70;24.86;158173.88;1736721;82;21186;-79
2021/03/22 06:55:32;;;;;;;23.67;11.45;;;;;;;26.73;24.79;158181.86;1748577;82;21181;-78
2021/03/22 06:58:05;;;;;;;19.27;10.28;;;;;;;26.72;24.88;158179.20;1690237;84;21670;-78
2021/03/22 07:00:39;;;;;;;20.57;10.28;;;;;;;26.83;24.84;158207.08;1693288;83;21162;-78
2021/03/22 07:03:25;;;;;;;18.90;10.08;;;;;;;26.93;24.83;158235.00;1719591;83;21174;-78
2021/03/22 07:05:57;;;;;;;15.25;8.68;;;;;;;26.94;24.69;158237.67;1720289;83;21404;-79
2021/03/22 07:08:39;;;;;;;14.80;8.23;;;;;;;26.89;24.56;158224.36;1699065;83;21345;-79
2021/03/22 07:11:16;;;;;;;17.65;8.50;;;;;;;26.97;24.59;158245.59;1683644;85;21164;-78
2021/03/22 07:13:59;;;;;;;20.55;8.50;;;;;;;26.75;24.68;158185.83;1718867;82;21214;-78
2021/03/22 07:16:33;;;;;;;15.85;8.18;;;;;;;26.66;24.77;158161.92;1707861;83;21171;-78
2021/03/22 07:19:15;;;;;;;13.22;7.78;;;;;;;26.92;24.80;158230.98;1725258;81;21182;-78
2021/03/22 07:21:57;;;;;;;14.58;8.13;;;;;;;27.08;24.67;158273.59;1722880;83;21186;-78
2021/03/22 07:24:48;;;;;;;15.05;8.68;;;;;;;27.17;24.56;158298.88;1678191;83;21166;-79
2021/03/22 07:27:30;;;;;;;15.30;8.23;;;;;;;27.40;24.51;158358.66;1719694;83;21336;-78
2021/03/22 07:30:23;;;;;;;15.18;7.50;;;;;;;27.33;24.50;158341.37;1721936;82;21220;-76
2021/03/22 07:33:29;;;;;;;13.45;7.85;;;;;;;27.30;24.47;158333.44;1726810;83;21351;-78
2021/03/22 07:36:24;;;;;;;15.95;8.45;;;;;;;27.17;24.63;158297.50;1708755;83;21313;-78
2021/03/22 07:39:10;;;;;;;13.40;7.10;;;;;;;27.14;24.61;158289.56;1690078;85;21336;-78
2021/03/22 07:42:05;;;;;;;14.23;7.78;;;;;;;27.10;24.83;158278.92;1697038;83;21707;-79
2021/03/22 07:45:04;;;;;;;11.97;7.45;;;;;;;27.10;25.10;158278.92;1679980;83;21167;-78
2021/03/22 07:47:48;;;;;;;12.78;7.37;;;;;;;25.67;26.37;157897.47;1684050;82;21171;-80
2021/03/22 07:50:49;;;;;;;15.53;7.12;;;;;;;27.06;25.42;158269.63;1657974;85;21194;-79
2021/03/22 07:53:54;;;;;;;15.05;7.65;;;;;;;25.78;26.52;157926.73;1669942;85;21186;-79
2021/03/22 07:56:47;;;;;;;13.93;7.83;;;;;;;25.67;26.83;157897.47;1670226;85;21362;-79
2021/03/22 07:59:49;;;;;;;16.48;8.55;;;;;;;25.72;26.95;157912.08;1735150;81;21309;-78
2021/03/22 08:02:36;;;;;;;;;;;;;;;26.05;26.75;157999.78;1738675;81;21181;-79
2021/03/22 08:05:32;;;;;;;13.20;7.17;;;;;;;26.18;26.77;158032.95;1725311;82;20202;-79
2021/03/22 08:08:28;;;;;;;20.20;10.58;;;;;;;26.04;26.67;157997.11;1766084;80;21340;-79
2021/03/22 08:11:10;;;;;;;19.32;10.15;;;;;;;25.98;26.65;157981.16;1708459;83;21233;-79
2021/03/22 08:13:55;;;;;;;23.95;10.28;;;;;;;26.28;26.76;158060.88;1724318;81;21317;-79
2021/03/22 08:16:58;;;;;;;18.05;9.43;;;;;;;26.54;26.35;158131.34;1710491;81;21171;-79
2021/03/22 08:20:12;;;;;;;24.12;13.75;;;;;;;26.70;26.58;158172.52;1745541;81;21355;-80
2021/03/22 08:23:17;;;;;;;13.68;8.85;;;;;;;26.58;26.36;158141.98;1731221;81;21313;-76
2021/03/22 08:25:52;;;;;;;54.42;30.77;;;;;;;26.58;26.39;158141.98;1736541;82;21992;-80
2021/03/22 08:28:42;;;;;;;36.08;19.25;;;;;;;26.53;26.55;158127.37;1752869;81;21720;-76
2021/03/22 08:31:33;;;;;;;26.65;15.63;;;;;;;26.43;26.73;158100.80;1724392;81;21154;-78
2021/03/22 08:34:37;;;;;;;18.30;11.15;;;;;;;26.31;27.06;158067.50;1765650;81;21315;-78
2021/03/22 08:37:23;;;;;;;49.27;24.70;;;;;;;26.01;27.47;157987.83;1732164;81;21332;-80
2021/03/22 08:40:06;;;;;;;58.20;30.60;;;;;;;25.78;27.76;157926.73;1728639;81;21786;-81
2021/03/22 08:42:52;;;;;;;16.57;10.23;;;;;;;25.77;27.99;157924.08;1722309;81;21328;-81
2021/03/22 08:45:40;;;;;;;27.62;16.07;;;;;;;25.35;28.25;157811.16;1722041;83;21332;-81
2021/03/22 08:48:26;;;;;;;28.02;12.50;;;;;;;25.25;28.42;157784.63;1764420;79;21328;-79
2021/03/22 08:51:05;;;;;;;20.45;11.53;;;;;;;25.16;28.64;157762.05;1711486;82;21165;-81
2021/03/22 08:53:39;;;;;;;16.95;9.10;;;;;;;25.06;28.97;157735.45;1742894;80;21241;-82
2021/03/22 08:56:29;;;;;;;14.03;8.90;;;;;;;25.13;28.89;157752.77;1748915;80;21712;-82
2021/03/22 08:59:04;;;;;;;14.73;9.25;;;;;;;25.29;28.81;157796.56;1746148;82;21675;-82
2021/03/22 09:01:40;;;;;;;15.98;9.30;;;;;;;25.65;27.94;157892.16;1754024;81;21245;-82
2021/03/22 09:04:31;;;;;;;19.17;9.73;;;;;;;25.89;27.62;157955.95;1707948;83;21309;-82
2021/03/22 09:07:14;;;;;;;22.55;12.15;;;;;;;25.68;28.27;157900.13;1747607;80;21218;-81
2021/03/22 09:09:48;;;;;;;14.75;9.18;;;;;;;25.43;28.20;157833.75;1769105;81;21194;-82
2021/03/22 09:12:40;;;;;;;29.30;15.20;;;;;;;25.32;28.30;157803.19;1758402;80;21315;-82
2021/03/22 09:15:27;;;;;;;22.58;13.45;;;;;;;25.23;28.39;157779.30;1754136;80;21697;-82
2021/03/22 09:18:08;;;;;;;18.60;11.05;;;;;;;25.11;28.19;157748.81;1759706;80;21206;-81
2021/03/22 09:20:56;;;;;;;23.62;14.40;;;;;;;24.94;28.72;157703.59;1753100;80;22135;-83
2021/03/22 09:23:39;;;;;;;17.30;9.98;;;;;;;25.00;28.89;157718.20;1779299;80;21237;-81
2021/03/22 09:26:12;;;;;;;20.37;10.50;;;;;;;24.95;28.74;157706.27;1763110;80;21316;-81
2021/03/22 09:28:48;;;;;;;15.85;8.93;;;;;;;25.08;28.85;157740.78;1772789;81;21764;-82
2021/03/22 09:31:28;;;;;;;15.35;8.68;;;;;;;25.15;28.75;157758.08;1753316;81;21254;-83
2021/03/22 09:34:17;;;;;;;14.05;8.85;;;;;;;25.31;28.36;157800.53;1752761;80;21269;-80
2021/03/22 09:36:49;;;;;;;13.53;8.25;;;;;;;25.53;28.12;157858.94;1767774;80;21356;-83
2021/03/22 09:39:27;;;;;;;16.15;10.15;;;;;;;25.82;27.94;157937.33;1780582;80;21324;-80
2021/03/22 09:42:12;;;;;;;15.72;9.63;;;;;;;25.94;28.04;157970.56;1731062;81;21198;-81
2021/03/22 09:45:02;;;;;;;15.78;9.75;;;;;;;26.26;27.74;158055.56;1717401;81;21159;-81
2021/03/22 09:47:39;;;;;;;11.73;7.67;;;;;;;26.60;27.31;158147.30;1720261;81;21676;-81
2021/03/22 09:50:22;;;;;;;15.25;8.68;;;;;;;26.92;26.70;158230.98;1724070;82;21357;-81
2021/03/22 09:52:59;;;;;;;16.55;10.55;;;;;;;26.87;26.67;158217.72;1738735;80;22172;-80
2021/03/22 09:55:39;;;;;;;14.05;8.58;;;;;;;26.69;26.78;158171.20;1777858;80;21300;-79
2021/03/22 09:58:43;;;;;;;12.28;7.62;;;;;;;26.82;26.45;158204.41;1747107;80;21163;-81
2021/03/22 10:01:38;;;;;;;16.62;9.48;;;;;;;26.80;27.82;158199.09;1748215;80;21325;-83
2021/03/22 10:04:34;;;;;;;13.98;8.90;;;;;;;26.55;27.21;158134.00;1765206;80;21320;-81
2021/03/22 10:07:31;;;;;;;17.70;10.93;;;;;;;26.48;27.65;158112.75;1775778;80;21296;-82
2021/03/22 10:10:41;;;;;;;17.30;10.43;;;;;;;26.37;27.59;158083.47;1745595;80;21359;-82
2021/03/22 10:13:44;;;;;;;17.45;10.58;;;;;;;26.20;27.11;158039.64;1756006;80;21678;-82
2021/03/22 10:16:29;;;;;;;16.00;10.10;;;;;;;25.98;27.48;157979.84;1727377;81;21192;-80
2021/03/22 10:19:07;;;;;;;16.05;9.33;;;;;;;25.95;27.37;157971.86;1697316;82;21193;-78
2021/03/22 10:21:48;;;;;;;13.72;9.18;;;;;;;25.49;27.76;157848.34;1726572;80;21150;-76
2021/03/22 10:24:31;;;;;;;16.60;9.55;;;;;;;25.45;27.70;157837.70;1724254;80;21839;-80
2021/03/22 10:27:07;;;;;;;15.28;9.90;;;;;;;25.45;27.54;157839.06;1778413;80;21445;-79
2021/03/22 10:29:41;;;;;;;14.78;9.18;;;;;;;25.48;27.75;157847.00;1739102;82;21200;-81
2021/03/22 10:32:23;;;;;;;16.57;9.03;;;;;;;25.50;27.74;157851.00;1739016;80;21146;-80
2021/03/22 10:35:15;;;;;;;16.35;10.25;;;;;;;25.48;27.54;157847.00;1738429;80;21600;-81
2021/03/22 10:37:52;;;;;;;26.65;12.93;;;;;;;25.58;27.73;157874.89;1737955;80;21320;-80
2021/03/22 10:40:32;;;;;;;27.15;13.62;;;;;;;25.70;27.64;157905.41;1726641;82;21323;-80
2021/03/22 10:43:04;;;;;;;27.30;16.15;;;;;;;25.89;27.59;157955.95;1737680;80;21920;-79
2021/03/22 10:45:42;;;;;;;17.82;10.45;;;;;;;26.25;27.41;158051.59;1741574;81;21317;-79
2021/03/22 10:48:36;;;;;;;39.98;20.40;;;;;;;26.70;26.95;158172.52;1745257;80;21362;-80
2021/03/22 10:51:18;;;;;;;24.80;15.38;;;;;;;26.98;26.62;158248.27;1770619;80;21864;-80
2021/03/22 10:54:02;;;;;;;20.12;12.75;;;;;;;26.91;26.46;158228.33;1745871;81;21341;-82
2021/03/22 10:56:40;;;;;;;20.95;13.10;;;;;;;26.71;26.36;158176.53;1738251;81;21196;-79
2021/03/22 10:59:30;;;;;;;22.02;12.05;;;;;;;26.42;26.60;158098.14;1756209;81;21161;-80
2021/03/22 11:02:31;;;;;;;17.62;10.75;;;;;;;26.29;26.83;158063.53;1731670;81;21370;-79
2021/03/22 11:05:15;;;;;;;16.23;10.20;;;;;;;26.13;27.19;158019.70;1730242;81;21219;-80
2021/03/22 11:08:04;;;;;;;17.48;9.83;;;;;;;26.03;27.18;157993.16;1703485;84;21345;-80
2021/03/22 11:10:37;;;;;;;22.22;11.05;;;;;;;25.99;27.21;157983.81;1714798;83;21426;-81
2021/03/22 11:13:15;;;;;;;17.40;10.45;;;;;;;26.03;27.26;157994.45;1734702;80;21325;-78
2021/03/22 11:15:49;;;;;;;14.93;9.80;;;;;;;26.35;27.10;158079.45;1738074;81;21321;-79
2021/03/22 11:18:23;;;;;;;15.70;9.58;;;;;;;26.58;26.84;158140.63;1728961;81;21408;-81
2021/03/22 11:20:56;;;;;;;15.13;9.25;;;;;;;26.55;26.81;158132.69;1739773;81;21322;-82
2021/03/22 11:23:41;;;;;;;18.35;10.70;;;;;;;26.31;27.06;158068.86;1762687;81;21828;-80
2021/03/22 11:26:26;;;;;;;14.83;10.00;;;;;;;26.00;27.49;157985.16;1761920;81;21329;-79
2021/03/22 11:29:24;;;;;;;16.65;10.13;;;;;;;25.68;27.58;157900.13;1727277;81;21321;-80
2021/03/22 11:32:04;;;;;;;18.50;9.93;;;;;;;25.48;27.96;157845.69;1743427;81;21848;-83
2021/03/22 11:34:44;;;;;;;16.62;10.38;;;;;;;25.37;27.86;157817.78;1725597;81;21169;-80
2021/03/22 11:37:24;;;;;;;15.78;9.88;;;;;;;25.43;27.99;157832.37;1735734;81;21333;-80
2021/03/22 11:40:01;;;;;;;19.77;11.50;;;;;;;25.44;27.93;157835.05;1744811;81;21186;-81
2021/03/22 11:42:40;;;;;;;17.12;10.48;;;;;;;25.52;28.13;157857.63;1699758;83;21180;-81
2021/03/22 11:45:48;;;;;;;19.00;11.03;;;;;;;25.55;28.00;157864.25;1651107;85;21237;-81
2021/03/22 11:48:28;;;;;;;19.77;11.20;;;;;;;25.63;27.87;157886.83;1687344;84;21403;-81
2021/03/22 11:51:10;;;;;;;20.77;12.93;;;;;;;25.52;28.09;157856.33;1667531;85;21209;-80
2021/03/22 11:54:06;;;;;;;16.30;11.18;;;;;;;25.68;28.16;157901.44;1673789;84;21206;-81
2021/03/22 11:56:41;;;;;;;19.27;11.83;;;;;;;25.68;28.16;157901.44;1668096;86;21343;-80
2021/03/22 11:59:25;;;;;;;26.87;12.85;;;;;;;25.42;28.36;157831.08;1683494;84;22124;-81
2021/03/22 12:02:17;;;;;;;19.32;12.05;;;;;;;25.52;28.33;157856.33;1690814;84;21369;-79
2021/03/22 12:04:59;;;;;;;20.20;12.07;;;;;;;25.38;28.39;157819.14;1695625;84;21323;-79
2021/03/22 12:07:48;;;;;;;18.40;10.80;;;;;;;25.55;27.92;157865.61;1691616;83;21846;-79
2021/03/22 12:10:29;;;;;;;16.15;10.43;;;;;;;25.34;28.00;157808.50;1672234;84;21227;-79
2021/03/22 12:13:05;;;;;;;20.85;11.80;;;;;;;25.34;27.98;157808.50;1681930;84;21197;-79
2021/03/22 12:15:37;;;;;;;17.27;10.80;;;;;;;25.34;27.99;157809.86;1696399;84;21331;-79
2021/03/22 12:18:12;;;;;;;20.92;11.25;;;;;;;25.39;28.10;157823.11;1722458;83;21917;-80
2021/03/22 12:20:44;;;;;;;20.25;11.48;;;;;;;25.39;28.13;157823.11;1716478;82;21188;-80